sensor_id;sensor_type;location;lat;lon;timestamp;P1;durP1;ratioP1;P2;durP2;ratioP2
64252;SDS011;50592;52.958;-7.470;2023-09-07T00:00:49;7.28;;;1.50;;
64252;SDS011;50592;52.958;-7.470;2023-09-07T00:03:14;4.68;;;1.55;;
64252;SDS011;50592;52.958;-7.470;2023-09-07T00:05:41;9.73;;;1.50;;
64252;SDS011;50592;52.958;-7.470;2023-09-07T00:08:07;7.10;;;1.05;;
64252;SDS011;50592;52.958;-7.470;2023-09-07T00:10:33;9.50;;;1.52;;
64252;SDS011;50592;52.958;-7.470;2023-09-07T00:13:02;6.43;;;1.60;;
64252;SDS011;50592;52.958;-7.470;2023-09-07T00:15:29;6.80;;;1.27;;
64252;SDS011;50592;52.958;-7.470;2023-09-07T00:17:56;7.93;;;1.88;;
64252;SDS011;50592;52.958;-7.470;2023-09-07T00:20:22;5.25;;;1.40;;
64252;SDS011;50592;52.958;-7.470;2023-09-07T00:22:49;8.65;;;1.85;;
64252;SDS011;50592;52.958;-7.470;2023-09-07T00:25:15;6.05;;;1.50;;
64252;SDS011;50592;52.958;-7.470;2023-09-07T00:27:40;6.07;;;1.52;;
64252;SDS011;50592;52.958;-7.470;2023-09-07T00:30:06;7.55;;;1.92;;
64252;SDS011;50592;52.958;-7.470;2023-09-07T00:32:37;7.35;;;1.65;;
64252;SDS011;50592;52.958;-7.470;2023-09-07T00:35:04;1.75;;;1.20;;
64252;SDS011;50592;52.958;-7.470;2023-09-07T00:37:31;4.38;;;1.60;;
64252;SDS011;50592;52.958;-7.470;2023-09-07T00:39:57;8.75;;;1.73;;
64252;SDS011;50592;52.958;-7.470;2023-09-07T00:42:23;7.50;;;1.27;;
64252;SDS011;50592;52.958;-7.470;2023-09-07T00:44:48;5.68;;;1.30;;
64252;SDS011;50592;52.958;-7.470;2023-09-07T00:47:15;6.45;;;1.67;;
64252;SDS011;50592;52.958;-7.470;2023-09-07T00:49:42;6.75;;;0.95;;
64252;SDS011;50592;52.958;-7.470;2023-09-07T00:52:08;6.82;;;1.60;;
64252;SDS011;50592;52.958;-7.470;2023-09-07T00:54:38;7.70;;;1.20;;
64252;SDS011;50592;52.958;-7.470;2023-09-07T00:57:06;4.10;;;1.30;;
64252;SDS011;50592;52.958;-7.470;2023-09-07T00:59:32;3.50;;;0.98;;
64252;SDS011;50592;52.958;-7.470;2023-09-07T01:01:59;3.40;;;1.17;;
64252;SDS011;50592;52.958;-7.470;2023-09-07T01:04:25;4.97;;;1.15;;
64252;SDS011;50592;52.958;-7.470;2023-09-07T01:06:51;5.88;;;1.30;;
64252;SDS011;50592;52.958;-7.470;2023-09-07T01:09:23;5.13;;;1.17;;
64252;SDS011;50592;52.958;-7.470;2023-09-07T01:11:52;7.13;;;1.60;;
64252;SDS011;50592;52.958;-7.470;2023-09-07T01:14:18;4.70;;;1.20;;
64252;SDS011;50592;52.958;-7.470;2023-09-07T01:16:44;4.05;;;1.15;;
64252;SDS011;50592;52.958;-7.470;2023-09-07T01:19:10;4.72;;;1.10;;
64252;SDS011;50592;52.958;-7.470;2023-09-07T01:21:36;5.38;;;1.40;;
64252;SDS011;50592;52.958;-7.470;2023-09-07T01:24:07;4.80;;;1.50;;
64252;SDS011;50592;52.958;-7.470;2023-09-07T01:26:35;4.25;;;1.48;;
64252;SDS011;50592;52.958;-7.470;2023-09-07T01:29:08;2.50;;;1.10;;
64252;SDS011;50592;52.958;-7.470;2023-09-07T01:31:38;2.83;;;1.45;;
64252;SDS011;50592;52.958;-7.470;2023-09-07T01:34:04;5.07;;;1.40;;
64252;SDS011;50592;52.958;-7.470;2023-09-07T01:36:32;3.22;;;1.00;;
64252;SDS011;50592;52.958;-7.470;2023-09-07T01:38:58;3.63;;;1.45;;
64252;SDS011;50592;52.958;-7.470;2023-09-07T01:41:24;5.22;;;1.30;;
64252;SDS011;50592;52.958;-7.470;2023-09-07T01:43:50;4.97;;;1.23;;
64252;SDS011;50592;52.958;-7.470;2023-09-07T01:46:16;3.00;;;1.17;;
64252;SDS011;50592;52.958;-7.470;2023-09-07T01:48:41;2.88;;;1.00;;
64252;SDS011;50592;52.958;-7.470;2023-09-07T01:51:08;5.30;;;1.30;;
64252;SDS011;50592;52.958;-7.470;2023-09-07T01:53:34;3.08;;;1.02;;
64252;SDS011;50592;52.958;-7.470;2023-09-07T01:55:59;2.85;;;1.30;;
64252;SDS011;50592;52.958;-7.470;2023-09-07T01:58:26;7.03;;;1.10;;
64252;SDS011;50592;52.958;-7.470;2023-09-07T02:00:58;3.28;;;1.02;;
64252;SDS011;50592;52.958;-7.470;2023-09-07T02:03:24;6.47;;;1.25;;
64252;SDS011;50592;52.958;-7.470;2023-09-07T02:05:52;4.40;;;1.50;;
64252;SDS011;50592;52.958;-7.470;2023-09-07T02:08:19;4.53;;;1.15;;
64252;SDS011;50592;52.958;-7.470;2023-09-07T02:10:45;4.97;;;1.35;;
64252;SDS011;50592;52.958;-7.470;2023-09-07T02:13:10;5.60;;;1.23;;
64252;SDS011;50592;52.958;-7.470;2023-09-07T02:15:37;5.88;;;1.45;;
64252;SDS011;50592;52.958;-7.470;2023-09-07T02:18:04;7.47;;;1.23;;
64252;SDS011;50592;52.958;-7.470;2023-09-07T02:20:31;3.75;;;1.02;;
64252;SDS011;50592;52.958;-7.470;2023-09-07T02:22:57;7.10;;;1.35;;
64252;SDS011;50592;52.958;-7.470;2023-09-07T02:25:23;6.32;;;1.23;;
64252;SDS011;50592;52.958;-7.470;2023-09-07T02:27:50;7.03;;;1.83;;
64252;SDS011;50592;52.958;-7.470;2023-09-07T02:30:15;3.92;;;1.60;;
64252;SDS011;50592;52.958;-7.470;2023-09-07T02:32:42;6.82;;;1.75;;
64252;SDS011;50592;52.958;-7.470;2023-09-07T02:35:08;7.38;;;1.83;;
64252;SDS011;50592;52.958;-7.470;2023-09-07T02:37:35;5.03;;;1.90;;
64252;SDS011;50592;52.958;-7.470;2023-09-07T02:40:01;3.63;;;1.75;;
64252;SDS011;50592;52.958;-7.470;2023-09-07T02:42:27;4.10;;;1.58;;
64252;SDS011;50592;52.958;-7.470;2023-09-07T02:44:53;4.60;;;1.60;;
64252;SDS011;50592;52.958;-7.470;2023-09-07T02:47:19;3.25;;;1.50;;
64252;SDS011;50592;52.958;-7.470;2023-09-07T02:49:44;9.57;;;2.40;;
64252;SDS011;50592;52.958;-7.470;2023-09-07T02:52:10;3.83;;;1.20;;
64252;SDS011;50592;52.958;-7.470;2023-09-07T02:54:36;4.80;;;1.27;;
64252;SDS011;50592;52.958;-7.470;2023-09-07T02:57:02;5.80;;;1.48;;
64252;SDS011;50592;52.958;-7.470;2023-09-07T02:59:28;5.97;;;1.67;;
64252;SDS011;50592;52.958;-7.470;2023-09-07T03:01:55;3.17;;;1.50;;
64252;SDS011;50592;52.958;-7.470;2023-09-07T03:04:21;4.85;;;1.30;;
64252;SDS011;50592;52.958;-7.470;2023-09-07T03:06:47;4.55;;;1.50;;
64252;SDS011;50592;52.958;-7.470;2023-09-07T03:09:12;2.88;;;1.20;;
64252;SDS011;50592;52.958;-7.470;2023-09-07T03:11:39;5.82;;;2.22;;
64252;SDS011;50592;52.958;-7.470;2023-09-07T03:14:05;5.30;;;1.70;;
64252;SDS011;50592;52.958;-7.470;2023-09-07T03:16:31;4.80;;;1.50;;
64252;SDS011;50592;52.958;-7.470;2023-09-07T03:18:57;5.80;;;1.80;;
64252;SDS011;50592;52.958;-7.470;2023-09-07T03:21:23;4.18;;;1.77;;
64252;SDS011;50592;52.958;-7.470;2023-09-07T03:23:57;4.82;;;1.52;;
64252;SDS011;50592;52.958;-7.470;2023-09-07T03:26:23;5.35;;;1.30;;
64252;SDS011;50592;52.958;-7.470;2023-09-07T03:28:49;3.15;;;1.50;;
64252;SDS011;50592;52.958;-7.470;2023-09-07T03:31:16;1.95;;;1.00;;
64252;SDS011;50592;52.958;-7.470;2023-09-07T03:33:42;3.65;;;1.40;;
64252;SDS011;50592;52.958;-7.470;2023-09-07T03:36:08;1.60;;;0.90;;
64252;SDS011;50592;52.958;-7.470;2023-09-07T03:38:35;3.65;;;1.20;;
64252;SDS011;50592;52.958;-7.470;2023-09-07T03:41:01;4.35;;;1.20;;
64252;SDS011;50592;52.958;-7.470;2023-09-07T03:43:27;2.92;;;1.20;;
64252;SDS011;50592;52.958;-7.470;2023-09-07T03:45:52;5.57;;;1.58;;
64252;SDS011;50592;52.958;-7.470;2023-09-07T03:48:19;2.50;;;1.27;;
64252;SDS011;50592;52.958;-7.470;2023-09-07T03:50:45;3.05;;;1.35;;
64252;SDS011;50592;52.958;-7.470;2023-09-07T03:53:11;4.15;;;1.67;;
64252;SDS011;50592;52.958;-7.470;2023-09-07T03:55:40;4.65;;;1.50;;
64252;SDS011;50592;52.958;-7.470;2023-09-07T03:58:10;3.05;;;1.30;;
64252;SDS011;50592;52.958;-7.470;2023-09-07T04:00:38;5.10;;;1.50;;
64252;SDS011;50592;52.958;-7.470;2023-09-07T04:03:08;6.47;;;1.55;;
64252;SDS011;50592;52.958;-7.470;2023-09-07T04:05:36;3.38;;;1.17;;
64252;SDS011;50592;52.958;-7.470;2023-09-07T04:08:02;3.97;;;1.30;;
64252;SDS011;50592;52.958;-7.470;2023-09-07T04:10:28;5.30;;;1.20;;
64252;SDS011;50592;52.958;-7.470;2023-09-07T04:12:54;5.18;;;1.20;;
64252;SDS011;50592;52.958;-7.470;2023-09-07T04:15:20;3.17;;;1.10;;
64252;SDS011;50592;52.958;-7.470;2023-09-07T04:17:46;4.53;;;1.38;;
64252;SDS011;50592;52.958;-7.470;2023-09-07T04:20:12;6.40;;;0.95;;
64252;SDS011;50592;52.958;-7.470;2023-09-07T04:22:38;7.47;;;1.52;;
64252;SDS011;50592;52.958;-7.470;2023-09-07T04:25:06;2.67;;;1.27;;
64252;SDS011;50592;52.958;-7.470;2023-09-07T04:27:32;2.28;;;1.20;;
64252;SDS011;50592;52.958;-7.470;2023-09-07T04:29:59;3.58;;;1.48;;
64252;SDS011;50592;52.958;-7.470;2023-09-07T04:32:25;2.58;;;1.00;;
64252;SDS011;50592;52.958;-7.470;2023-09-07T04:34:53;4.47;;;1.27;;
64252;SDS011;50592;52.958;-7.470;2023-09-07T04:37:19;2.85;;;1.20;;
64252;SDS011;50592;52.958;-7.470;2023-09-07T04:39:45;6.72;;;1.50;;
64252;SDS011;50592;52.958;-7.470;2023-09-07T04:42:12;3.38;;;1.10;;
64252;SDS011;50592;52.958;-7.470;2023-09-07T04:44:38;2.67;;;1.05;;
64252;SDS011;50592;52.958;-7.470;2023-09-07T04:47:04;3.67;;;1.25;;
64252;SDS011;50592;52.958;-7.470;2023-09-07T04:49:30;4.55;;;1.30;;
64252;SDS011;50592;52.958;-7.470;2023-09-07T04:51:56;4.55;;;1.10;;
64252;SDS011;50592;52.958;-7.470;2023-09-07T04:54:24;4.30;;;1.23;;
64252;SDS011;50592;52.958;-7.470;2023-09-07T04:56:50;6.95;;;1.23;;
64252;SDS011;50592;52.958;-7.470;2023-09-07T04:59:15;4.72;;;1.02;;
64252;SDS011;50592;52.958;-7.470;2023-09-07T05:01:41;4.57;;;1.13;;
64252;SDS011;50592;52.958;-7.470;2023-09-07T05:04:07;3.47;;;1.17;;
64252;SDS011;50592;52.958;-7.470;2023-09-07T05:06:33;2.97;;;0.95;;
64252;SDS011;50592;52.958;-7.470;2023-09-07T05:09:04;4.00;;;1.70;;
64252;SDS011;50592;52.958;-7.470;2023-09-07T05:11:30;5.28;;;1.00;;
64252;SDS011;50592;52.958;-7.470;2023-09-07T05:13:56;3.67;;;1.33;;
64252;SDS011;50592;52.958;-7.470;2023-09-07T05:16:21;6.85;;;1.27;;
64252;SDS011;50592;52.958;-7.470;2023-09-07T05:18:47;5.05;;;1.27;;
64252;SDS011;50592;52.958;-7.470;2023-09-07T05:21:14;5.18;;;1.33;;
64252;SDS011;50592;52.958;-7.470;2023-09-07T05:23:41;3.65;;;1.00;;
64252;SDS011;50592;52.958;-7.470;2023-09-07T05:26:07;6.10;;;1.33;;
64252;SDS011;50592;52.958;-7.470;2023-09-07T05:28:33;3.47;;;1.23;;
64252;SDS011;50592;52.958;-7.470;2023-09-07T05:30:59;4.45;;;1.20;;
64252;SDS011;50592;52.958;-7.470;2023-09-07T05:33:25;4.95;;;1.10;;
64252;SDS011;50592;52.958;-7.470;2023-09-07T05:35:51;5.38;;;1.45;;
64252;SDS011;50592;52.958;-7.470;2023-09-07T05:38:17;4.53;;;1.63;;
64252;SDS011;50592;52.958;-7.470;2023-09-07T05:40:44;4.05;;;1.10;;
64252;SDS011;50592;52.958;-7.470;2023-09-07T05:43:11;4.25;;;1.10;;
64252;SDS011;50592;52.958;-7.470;2023-09-07T05:45:41;3.85;;;1.45;;
64252;SDS011;50592;52.958;-7.470;2023-09-07T05:48:08;2.97;;;1.30;;
64252;SDS011;50592;52.958;-7.470;2023-09-07T05:50:35;6.38;;;1.35;;
64252;SDS011;50592;52.958;-7.470;2023-09-07T05:53:02;3.67;;;1.35;;
64252;SDS011;50592;52.958;-7.470;2023-09-07T05:55:29;6.05;;;1.70;;
64252;SDS011;50592;52.958;-7.470;2023-09-07T05:57:55;1.63;;;1.08;;
64252;SDS011;50592;52.958;-7.470;2023-09-07T06:00:22;5.30;;;1.67;;
64252;SDS011;50592;52.958;-7.470;2023-09-07T06:02:49;3.92;;;1.30;;
64252;SDS011;50592;52.958;-7.470;2023-09-07T06:05:16;2.10;;;1.10;;
64252;SDS011;50592;52.958;-7.470;2023-09-07T06:07:43;5.90;;;2.40;;
64252;SDS011;50592;52.958;-7.470;2023-09-07T06:10:09;4.70;;;1.83;;
64252;SDS011;50592;52.958;-7.470;2023-09-07T06:12:35;5.30;;;1.70;;
64252;SDS011;50592;52.958;-7.470;2023-09-07T06:15:02;2.78;;;1.38;;
64252;SDS011;50592;52.958;-7.470;2023-09-07T06:17:30;5.43;;;1.75;;
64252;SDS011;50592;52.958;-7.470;2023-09-07T06:19:56;7.72;;;1.90;;
64252;SDS011;50592;52.958;-7.470;2023-09-07T06:22:23;10.20;;;2.08;;
64252;SDS011;50592;52.958;-7.470;2023-09-07T06:24:50;6.38;;;1.77;;
64252;SDS011;50592;52.958;-7.470;2023-09-07T06:27:16;4.65;;;1.45;;
64252;SDS011;50592;52.958;-7.470;2023-09-07T06:29:42;5.70;;;1.33;;
64252;SDS011;50592;52.958;-7.470;2023-09-07T06:32:08;9.95;;;2.05;;
64252;SDS011;50592;52.958;-7.470;2023-09-07T06:34:34;3.70;;;1.73;;
64252;SDS011;50592;52.958;-7.470;2023-09-07T06:36:59;9.52;;;1.92;;
64252;SDS011;50592;52.958;-7.470;2023-09-07T06:39:26;5.88;;;1.65;;
64252;SDS011;50592;52.958;-7.470;2023-09-07T06:41:52;5.10;;;1.65;;
64252;SDS011;50592;52.958;-7.470;2023-09-07T06:44:20;4.50;;;1.70;;
64252;SDS011;50592;52.958;-7.470;2023-09-07T06:46:47;6.05;;;2.00;;
64252;SDS011;50592;52.958;-7.470;2023-09-07T06:49:16;3.97;;;1.63;;
64252;SDS011;50592;52.958;-7.470;2023-09-07T06:51:42;7.22;;;2.47;;
64252;SDS011;50592;52.958;-7.470;2023-09-07T06:54:08;8.65;;;1.77;;
64252;SDS011;50592;52.958;-7.470;2023-09-07T06:56:35;7.68;;;2.20;;
64252;SDS011;50592;52.958;-7.470;2023-09-07T06:59:01;9.75;;;2.25;;
64252;SDS011;50592;52.958;-7.470;2023-09-07T07:01:27;6.05;;;1.85;;
64252;SDS011;50592;52.958;-7.470;2023-09-07T07:03:53;7.47;;;1.88;;
64252;SDS011;50592;52.958;-7.470;2023-09-07T07:06:20;10.10;;;2.30;;
64252;SDS011;50592;52.958;-7.470;2023-09-07T07:08:46;6.32;;;2.58;;
64252;SDS011;50592;52.958;-7.470;2023-09-07T07:11:12;10.77;;;3.03;;
64252;SDS011;50592;52.958;-7.470;2023-09-07T07:13:37;9.80;;;3.92;;
64252;SDS011;50592;52.958;-7.470;2023-09-07T07:16:04;10.80;;;3.95;;
64252;SDS011;50592;52.958;-7.470;2023-09-07T07:18:30;7.72;;;2.47;;
64252;SDS011;50592;52.958;-7.470;2023-09-07T07:20:57;12.07;;;3.22;;
64252;SDS011;50592;52.958;-7.470;2023-09-07T07:23:23;7.65;;;2.58;;
64252;SDS011;50592;52.958;-7.470;2023-09-07T07:25:49;8.50;;;3.13;;
64252;SDS011;50592;52.958;-7.470;2023-09-07T07:28:16;6.22;;;2.88;;
64252;SDS011;50592;52.958;-7.470;2023-09-07T07:30:42;6.20;;;2.75;;
64252;SDS011;50592;52.958;-7.470;2023-09-07T07:33:08;5.03;;;2.50;;
64252;SDS011;50592;52.958;-7.470;2023-09-07T07:35:36;9.32;;;2.90;;
64252;SDS011;50592;52.958;-7.470;2023-09-07T07:38:02;8.15;;;2.30;;
64252;SDS011;50592;52.958;-7.470;2023-09-07T07:40:30;8.82;;;2.40;;
64252;SDS011;50592;52.958;-7.470;2023-09-07T07:42:56;10.50;;;2.80;;
64252;SDS011;50592;52.958;-7.470;2023-09-07T07:45:22;4.85;;;2.03;;
64252;SDS011;50592;52.958;-7.470;2023-09-07T07:47:49;5.65;;;1.92;;
64252;SDS011;50592;52.958;-7.470;2023-09-07T07:50:15;6.07;;;1.92;;
64252;SDS011;50592;52.958;-7.470;2023-09-07T07:52:43;6.35;;;2.28;;
64252;SDS011;50592;52.958;-7.470;2023-09-07T07:55:09;4.88;;;1.63;;
64252;SDS011;50592;52.958;-7.470;2023-09-07T07:57:36;10.25;;;2.38;;
64252;SDS011;50592;52.958;-7.470;2023-09-07T08:00:02;8.23;;;2.20;;
64252;SDS011;50592;52.958;-7.470;2023-09-07T08:02:39;11.35;;;2.45;;
64252;SDS011;50592;52.958;-7.470;2023-09-07T08:05:07;8.52;;;2.60;;
64252;SDS011;50592;52.958;-7.470;2023-09-07T08:07:34;14.27;;;2.95;;
64252;SDS011;50592;52.958;-7.470;2023-09-07T08:10:00;13.10;;;2.38;;
64252;SDS011;50592;52.958;-7.470;2023-09-07T08:12:26;7.05;;;2.53;;
64252;SDS011;50592;52.958;-7.470;2023-09-07T08:14:53;12.80;;;3.40;;
64252;SDS011;50592;52.958;-7.470;2023-09-07T08:17:22;12.00;;;3.33;;
64252;SDS011;50592;52.958;-7.470;2023-09-07T08:19:50;11.35;;;2.75;;
64252;SDS011;50592;52.958;-7.470;2023-09-07T08:22:20;12.70;;;3.20;;
64252;SDS011;50592;52.958;-7.470;2023-09-07T08:24:46;18.38;;;3.40;;
64252;SDS011;50592;52.958;-7.470;2023-09-07T08:27:14;11.73;;;2.85;;
64252;SDS011;50592;52.958;-7.470;2023-09-07T08:29:44;12.38;;;2.80;;
64252;SDS011;50592;52.958;-7.470;2023-09-07T08:32:17;13.02;;;3.35;;
64252;SDS011;50592;52.958;-7.470;2023-09-07T08:34:43;11.63;;;2.53;;
64252;SDS011;50592;52.958;-7.470;2023-09-07T08:37:09;18.50;;;3.50;;
64252;SDS011;50592;52.958;-7.470;2023-09-07T08:39:34;15.25;;;2.80;;
64252;SDS011;50592;52.958;-7.470;2023-09-07T08:42:02;13.50;;;3.30;;
64252;SDS011;50592;52.958;-7.470;2023-09-07T08:44:28;10.77;;;3.45;;
64252;SDS011;50592;52.958;-7.470;2023-09-07T08:46:55;15.00;;;2.92;;
64252;SDS011;50592;52.958;-7.470;2023-09-07T08:49:22;9.57;;;3.45;;
64252;SDS011;50592;52.958;-7.470;2023-09-07T08:51:49;13.32;;;2.85;;
64252;SDS011;50592;52.958;-7.470;2023-09-07T08:54:15;21.02;;;2.97;;
64252;SDS011;50592;52.958;-7.470;2023-09-07T08:56:41;15.43;;;3.45;;
64252;SDS011;50592;52.958;-7.470;2023-09-07T08:59:07;19.63;;;3.38;;
64252;SDS011;50592;52.958;-7.470;2023-09-07T09:01:33;19.83;;;3.45;;
64252;SDS011;50592;52.958;-7.470;2023-09-07T09:03:59;18.88;;;4.65;;
64252;SDS011;50592;52.958;-7.470;2023-09-07T09:06:24;19.13;;;4.50;;
64252;SDS011;50592;52.958;-7.470;2023-09-07T09:08:54;15.85;;;4.13;;
64252;SDS011;50592;52.958;-7.470;2023-09-07T09:11:22;12.50;;;3.60;;
64252;SDS011;50592;52.958;-7.470;2023-09-07T09:13:49;13.20;;;3.78;;
64252;SDS011;50592;52.958;-7.470;2023-09-07T09:16:17;11.82;;;3.17;;
64252;SDS011;50592;52.958;-7.470;2023-09-07T09:18:51;12.55;;;3.53;;
64252;SDS011;50592;52.958;-7.470;2023-09-07T09:21:25;16.48;;;3.22;;
64252;SDS011;50592;52.958;-7.470;2023-09-07T09:23:52;17.77;;;3.30;;
64252;SDS011;50592;52.958;-7.470;2023-09-07T09:26:21;15.75;;;3.65;;
64252;SDS011;50592;52.958;-7.470;2023-09-07T09:28:49;15.80;;;3.80;;
64252;SDS011;50592;52.958;-7.470;2023-09-07T09:31:18;14.55;;;3.83;;
64252;SDS011;50592;52.958;-7.470;2023-09-07T09:33:48;18.45;;;4.00;;
64252;SDS011;50592;52.958;-7.470;2023-09-07T09:36:16;17.63;;;4.43;;
64252;SDS011;50592;52.958;-7.470;2023-09-07T09:38:46;18.15;;;5.15;;
64252;SDS011;50592;52.958;-7.470;2023-09-07T09:41:17;16.08;;;4.07;;
64252;SDS011;50592;52.958;-7.470;2023-09-07T09:43:43;16.35;;;4.43;;
64252;SDS011;50592;52.958;-7.470;2023-09-07T09:46:11;13.93;;;3.67;;
64252;SDS011;50592;52.958;-7.470;2023-09-07T09:48:39;15.23;;;4.78;;
64252;SDS011;50592;52.958;-7.470;2023-09-07T09:51:05;15.18;;;4.47;;
64252;SDS011;50592;52.958;-7.470;2023-09-07T09:53:32;14.32;;;5.00;;
64252;SDS011;50592;52.958;-7.470;2023-09-07T09:55:59;12.30;;;3.63;;
64252;SDS011;50592;52.958;-7.470;2023-09-07T09:58:24;21.98;;;4.53;;
64252;SDS011;50592;52.958;-7.470;2023-09-07T10:00:51;11.25;;;4.07;;
64252;SDS011;50592;52.958;-7.470;2023-09-07T10:05:53;14.65;;;4.57;;
64252;SDS011;50592;52.958;-7.470;2023-09-07T10:08:19;14.60;;;5.03;;
64252;SDS011;50592;52.958;-7.470;2023-09-07T10:10:48;12.85;;;4.93;;
64252;SDS011;50592;52.958;-7.470;2023-09-07T10:13:31;19.45;;;4.85;;
64252;SDS011;50592;52.958;-7.470;2023-09-07T10:16:06;18.83;;;5.45;;
64252;SDS011;50592;52.958;-7.470;2023-09-07T10:18:35;26.83;;;4.57;;
64252;SDS011;50592;52.958;-7.470;2023-09-07T10:21:02;18.27;;;4.22;;
64252;SDS011;50592;52.958;-7.470;2023-09-07T10:23:39;28.58;;;4.88;;
64252;SDS011;50592;52.958;-7.470;2023-09-07T10:26:13;21.83;;;4.60;;
64252;SDS011;50592;52.958;-7.470;2023-09-07T10:28:43;13.95;;;4.82;;
64252;SDS011;50592;52.958;-7.470;2023-09-07T10:31:14;18.80;;;4.68;;
64252;SDS011;50592;52.958;-7.470;2023-09-07T10:33:41;27.50;;;4.47;;
64252;SDS011;50592;52.958;-7.470;2023-09-07T10:36:07;33.55;;;5.43;;
64252;SDS011;50592;52.958;-7.470;2023-09-07T10:38:36;18.38;;;4.30;;
64252;SDS011;50592;52.958;-7.470;2023-09-07T10:41:04;24.77;;;4.90;;
64252;SDS011;50592;52.958;-7.470;2023-09-07T10:43:30;20.80;;;4.50;;
64252;SDS011;50592;52.958;-7.470;2023-09-07T10:45:58;21.35;;;4.43;;
64252;SDS011;50592;52.958;-7.470;2023-09-07T10:48:26;14.32;;;3.97;;
64252;SDS011;50592;52.958;-7.470;2023-09-07T10:50:55;18.75;;;4.07;;
64252;SDS011;50592;52.958;-7.470;2023-09-07T10:53:29;16.95;;;4.00;;
64252;SDS011;50592;52.958;-7.470;2023-09-07T10:55:57;11.27;;;4.10;;
64252;SDS011;50592;52.958;-7.470;2023-09-07T10:58:29;20.13;;;3.97;;
64252;SDS011;50592;52.958;-7.470;2023-09-07T11:00:57;15.43;;;4.47;;
64252;SDS011;50592;52.958;-7.470;2023-09-07T11:03:27;19.48;;;4.30;;
64252;SDS011;50592;52.958;-7.470;2023-09-07T11:05:58;15.93;;;4.30;;
64252;SDS011;50592;52.958;-7.470;2023-09-07T11:08:31;22.38;;;4.03;;
64252;SDS011;50592;52.958;-7.470;2023-09-07T11:10:59;17.42;;;4.07;;
64252;SDS011;50592;52.958;-7.470;2023-09-07T11:13:26;24.77;;;3.83;;
64252;SDS011;50592;52.958;-7.470;2023-09-07T11:15:58;23.05;;;4.63;;
64252;SDS011;50592;52.958;-7.470;2023-09-07T11:18:25;20.25;;;4.20;;
64252;SDS011;50592;52.958;-7.470;2023-09-07T11:20:51;19.65;;;4.95;;
64252;SDS011;50592;52.958;-7.470;2023-09-07T11:23:18;17.05;;;3.83;;
64252;SDS011;50592;52.958;-7.470;2023-09-07T11:25:48;12.13;;;3.60;;
64252;SDS011;50592;52.958;-7.470;2023-09-07T11:28:16;17.67;;;3.65;;
64252;SDS011;50592;52.958;-7.470;2023-09-07T11:30:50;19.55;;;4.32;;
64252;SDS011;50592;52.958;-7.470;2023-09-07T11:33:16;14.32;;;4.13;;
64252;SDS011;50592;52.958;-7.470;2023-09-07T11:35:42;24.70;;;4.68;;
64252;SDS011;50592;52.958;-7.470;2023-09-07T11:38:08;12.73;;;3.70;;
64252;SDS011;50592;52.958;-7.470;2023-09-07T11:40:37;22.45;;;4.75;;
64252;SDS011;50592;52.958;-7.470;2023-09-07T11:43:03;18.35;;;4.88;;
64252;SDS011;50592;52.958;-7.470;2023-09-07T11:45:29;18.52;;;5.72;;
64252;SDS011;50592;52.958;-7.470;2023-09-07T11:47:54;25.08;;;4.75;;
64252;SDS011;50592;52.958;-7.470;2023-09-07T11:50:22;21.35;;;4.18;;
64252;SDS011;50592;52.958;-7.470;2023-09-07T11:52:50;21.48;;;4.97;;
64252;SDS011;50592;52.958;-7.470;2023-09-07T11:55:16;21.92;;;4.95;;
64252;SDS011;50592;52.958;-7.470;2023-09-07T11:57:42;35.13;;;6.63;;
64252;SDS011;50592;52.958;-7.470;2023-09-07T12:00:08;21.88;;;5.60;;
64252;SDS011;50592;52.958;-7.470;2023-09-07T12:02:38;19.33;;;5.35;;
64252;SDS011;50592;52.958;-7.470;2023-09-07T12:05:04;32.42;;;6.60;;
64252;SDS011;50592;52.958;-7.470;2023-09-07T12:07:33;18.13;;;4.20;;
64252;SDS011;50592;52.958;-7.470;2023-09-07T12:09:59;24.27;;;5.05;;
64252;SDS011;50592;52.958;-7.470;2023-09-07T12:12:25;22.27;;;4.57;;
64252;SDS011;50592;52.958;-7.470;2023-09-07T12:14:51;28.00;;;5.03;;
64252;SDS011;50592;52.958;-7.470;2023-09-07T12:17:17;19.17;;;3.88;;
64252;SDS011;50592;52.958;-7.470;2023-09-07T12:19:45;17.63;;;4.10;;
64252;SDS011;50592;52.958;-7.470;2023-09-07T12:22:11;19.63;;;4.50;;
64252;SDS011;50592;52.958;-7.470;2023-09-07T12:24:37;28.73;;;4.55;;
64252;SDS011;50592;52.958;-7.470;2023-09-07T12:27:03;20.33;;;4.43;;
64252;SDS011;50592;52.958;-7.470;2023-09-07T12:29:29;18.75;;;4.57;;
64252;SDS011;50592;52.958;-7.470;2023-09-07T12:31:55;20.35;;;4.43;;
64252;SDS011;50592;52.958;-7.470;2023-09-07T12:34:22;18.33;;;4.63;;
64252;SDS011;50592;52.958;-7.470;2023-09-07T12:36:48;25.90;;;4.55;;
64252;SDS011;50592;52.958;-7.470;2023-09-07T12:39:14;17.38;;;5.10;;
64252;SDS011;50592;52.958;-7.470;2023-09-07T12:41:40;21.65;;;4.85;;
64252;SDS011;50592;52.958;-7.470;2023-09-07T12:44:06;19.27;;;4.53;;
64252;SDS011;50592;52.958;-7.470;2023-09-07T12:46:32;21.15;;;4.18;;
64252;SDS011;50592;52.958;-7.470;2023-09-07T12:48:58;20.33;;;4.45;;
64252;SDS011;50592;52.958;-7.470;2023-09-07T12:51:24;23.08;;;4.90;;
64252;SDS011;50592;52.958;-7.470;2023-09-07T12:53:50;30.60;;;4.93;;
64252;SDS011;50592;52.958;-7.470;2023-09-07T12:56:16;22.27;;;5.15;;
64252;SDS011;50592;52.958;-7.470;2023-09-07T12:58:43;20.73;;;4.40;;
64252;SDS011;50592;52.958;-7.470;2023-09-07T13:01:09;33.50;;;6.70;;
64252;SDS011;50592;52.958;-7.470;2023-09-07T13:03:39;26.33;;;5.93;;
64252;SDS011;50592;52.958;-7.470;2023-09-07T13:06:04;17.75;;;4.40;;
64252;SDS011;50592;52.958;-7.470;2023-09-07T13:08:30;15.35;;;4.15;;
64252;SDS011;50592;52.958;-7.470;2023-09-07T13:10:56;21.92;;;5.25;;
64252;SDS011;50592;52.958;-7.470;2023-09-07T13:13:25;18.02;;;4.47;;
64252;SDS011;50592;52.958;-7.470;2023-09-07T13:15:57;24.58;;;5.30;;
64252;SDS011;50592;52.958;-7.470;2023-09-07T13:18:23;31.05;;;6.03;;
64252;SDS011;50592;52.958;-7.470;2023-09-07T13:20:50;24.45;;;5.20;;
64252;SDS011;50592;52.958;-7.470;2023-09-07T13:23:17;11.75;;;4.30;;
64252;SDS011;50592;52.958;-7.470;2023-09-07T13:25:43;17.55;;;4.70;;
64252;SDS011;50592;52.958;-7.470;2023-09-07T13:28:09;18.00;;;4.75;;
64252;SDS011;50592;52.958;-7.470;2023-09-07T13:30:34;20.90;;;3.85;;
64252;SDS011;50592;52.958;-7.470;2023-09-07T13:33:00;19.60;;;4.70;;
64252;SDS011;50592;52.958;-7.470;2023-09-07T13:35:26;15.55;;;4.57;;
64252;SDS011;50592;52.958;-7.470;2023-09-07T13:37:52;14.55;;;5.40;;
64252;SDS011;50592;52.958;-7.470;2023-09-07T13:40:18;15.95;;;5.22;;
64252;SDS011;50592;52.958;-7.470;2023-09-07T13:42:45;20.25;;;4.88;;
64252;SDS011;50592;52.958;-7.470;2023-09-07T13:45:13;20.77;;;5.47;;
64252;SDS011;50592;52.958;-7.470;2023-09-07T13:47:39;22.65;;;4.82;;
64252;SDS011;50592;52.958;-7.470;2023-09-07T13:50:05;16.00;;;3.85;;
64252;SDS011;50592;52.958;-7.470;2023-09-07T13:52:31;19.00;;;4.25;;
64252;SDS011;50592;52.958;-7.470;2023-09-07T13:54:57;16.13;;;4.22;;
64252;SDS011;50592;52.958;-7.470;2023-09-07T13:57:23;23.02;;;4.22;;
64252;SDS011;50592;52.958;-7.470;2023-09-07T13:59:48;18.23;;;4.80;;
64252;SDS011;50592;52.958;-7.470;2023-09-07T14:02:14;19.70;;;4.97;;
64252;SDS011;50592;52.958;-7.470;2023-09-07T14:04:40;26.40;;;5.60;;
64252;SDS011;50592;52.958;-7.470;2023-09-07T14:07:06;20.55;;;6.28;;
64252;SDS011;50592;52.958;-7.470;2023-09-07T14:09:32;20.60;;;4.30;;
64252;SDS011;50592;52.958;-7.470;2023-09-07T14:11:59;28.70;;;7.05;;
64252;SDS011;50592;52.958;-7.470;2023-09-07T14:14:24;17.20;;;5.25;;
64252;SDS011;50592;52.958;-7.470;2023-09-07T14:16:50;23.88;;;6.25;;
64252;SDS011;50592;52.958;-7.470;2023-09-07T14:19:20;19.73;;;6.45;;
64252;SDS011;50592;52.958;-7.470;2023-09-07T14:21:46;16.40;;;5.85;;
64252;SDS011;50592;52.958;-7.470;2023-09-07T14:24:12;14.43;;;4.60;;
64252;SDS011;50592;52.958;-7.470;2023-09-07T14:26:37;24.08;;;5.00;;
64252;SDS011;50592;52.958;-7.470;2023-09-07T14:29:03;24.33;;;4.13;;